sensor_id;sensor_type;location;lat;lon;timestamp;P1;durP1;ratioP1;P2;durP2;ratioP2
51949;SDS011;37974;53.218;6.640;2023-06-19T00:03:35;7.07;;;4.72;;
51949;SDS011;37974;53.218;6.640;2023-06-19T00:06:18;10.70;;;4.90;;
51949;SDS011;37974;53.218;6.640;2023-06-19T00:08:53;6.88;;;4.93;;
51949;SDS011;37974;53.218;6.640;2023-06-19T00:14:59;6.93;;;5.00;;
51949;SDS011;37974;53.218;6.640;2023-06-19T00:17:39;7.35;;;5.15;;
51949;SDS011;37974;53.218;6.640;2023-06-19T00:20:33;6.63;;;4.63;;
51949;SDS011;37974;53.218;6.640;2023-06-19T00:23:29;10.55;;;4.70;;
51949;SDS011;37974;53.218;6.640;2023-06-19T00:26:31;9.18;;;5.10;;
51949;SDS011;37974;53.218;6.640;2023-06-19T00:29:40;7.22;;;4.68;;
51949;SDS011;37974;53.218;6.640;2023-06-19T00:32:14;7.65;;;4.68;;
51949;SDS011;37974;53.218;6.640;2023-06-19T00:35:11;9.18;;;4.68;;
51949;SDS011;37974;53.218;6.640;2023-06-19T00:37:41;9.07;;;5.40;;
51949;SDS011;37974;53.218;6.640;2023-06-19T00:40:42;6.68;;;4.93;;
51949;SDS011;37974;53.218;6.640;2023-06-19T00:43:39;10.88;;;4.90;;
51949;SDS011;37974;53.218;6.640;2023-06-19T00:46:14;7.82;;;4.85;;
51949;SDS011;37974;53.218;6.640;2023-06-19T00:51:50;8.57;;;4.93;;
51949;SDS011;37974;53.218;6.640;2023-06-19T00:54:53;12.30;;;4.88;;
51949;SDS011;37974;53.218;6.640;2023-06-19T01:01:49;7.53;;;4.68;;
51949;SDS011;37974;53.218;6.640;2023-06-19T01:04:27;9.65;;;4.75;;
51949;SDS011;37974;53.218;6.640;2023-06-19T01:07:09;10.13;;;5.13;;
51949;SDS011;37974;53.218;6.640;2023-06-19T01:09:56;7.88;;;5.43;;
51949;SDS011;37974;53.218;6.640;2023-06-19T01:12:56;9.13;;;4.57;;
51949;SDS011;37974;53.218;6.640;2023-06-19T01:15:53;8.88;;;4.65;;
51949;SDS011;37974;53.218;6.640;2023-06-19T01:19:10;9.23;;;5.20;;
51949;SDS011;37974;53.218;6.640;2023-06-19T01:23:25;10.05;;;5.30;;
51949;SDS011;37974;53.218;6.640;2023-06-19T01:28:35;7.43;;;5.20;;
51949;SDS011;37974;53.218;6.640;2023-06-19T01:31:25;9.02;;;5.03;;
51949;SDS011;37974;53.218;6.640;2023-06-19T01:34:36;6.45;;;4.72;;
51949;SDS011;37974;53.218;6.640;2023-06-19T01:37:34;8.13;;;4.65;;
51949;SDS011;37974;53.218;6.640;2023-06-19T01:40:21;9.18;;;5.00;;
51949;SDS011;37974;53.218;6.640;2023-06-19T01:43:02;11.88;;;5.15;;
51949;SDS011;37974;53.218;6.640;2023-06-19T01:46:27;9.13;;;5.28;;
51949;SDS011;37974;53.218;6.640;2023-06-19T01:49:10;8.40;;;5.03;;
51949;SDS011;37974;53.218;6.640;2023-06-19T01:51:51;7.53;;;5.05;;
51949;SDS011;37974;53.218;6.640;2023-06-19T01:58:09;7.00;;;5.25;;
51949;SDS011;37974;53.218;6.640;2023-06-19T02:01:09;6.72;;;4.50;;
51949;SDS011;37974;53.218;6.640;2023-06-19T02:03:51;9.02;;;5.15;;
51949;SDS011;37974;53.218;6.640;2023-06-19T02:06:37;10.60;;;5.63;;
51949;SDS011;37974;53.218;6.640;2023-06-19T02:15:31;6.95;;;5.07;;
51949;SDS011;37974;53.218;6.640;2023-06-19T02:18:16;8.63;;;4.90;;
51949;SDS011;37974;53.218;6.640;2023-06-19T02:21:07;8.75;;;5.38;;
51949;SDS011;37974;53.218;6.640;2023-06-19T02:23:51;11.88;;;4.95;;
51949;SDS011;37974;53.218;6.640;2023-06-19T02:26:56;8.02;;;5.25;;
51949;SDS011;37974;53.218;6.640;2023-06-19T02:29:27;7.45;;;4.78;;
51949;SDS011;37974;53.218;6.640;2023-06-19T02:32:00;7.93;;;4.78;;
51949;SDS011;37974;53.218;6.640;2023-06-19T02:34:42;7.43;;;5.20;;
51949;SDS011;37974;53.218;6.640;2023-06-19T02:37:42;10.07;;;5.35;;
51949;SDS011;37974;53.218;6.640;2023-06-19T02:40:23;10.38;;;5.60;;
51949;SDS011;37974;53.218;6.640;2023-06-19T02:43:08;13.38;;;5.40;;
51949;SDS011;37974;53.218;6.640;2023-06-19T02:46:18;8.35;;;5.45;;
51949;SDS011;37974;53.218;6.640;2023-06-19T02:49:33;9.68;;;5.20;;
51949;SDS011;37974;53.218;6.640;2023-06-19T02:56:18;9.32;;;5.53;;
51949;SDS011;37974;53.218;6.640;2023-06-19T02:58:28;9.05;;;5.57;;
51949;SDS011;37974;53.218;6.640;2023-06-19T03:06:56;6.30;;;4.95;;
51949;SDS011;37974;53.218;6.640;2023-06-19T03:09:51;8.85;;;5.30;;
51949;SDS011;37974;53.218;6.640;2023-06-19T03:12:28;7.80;;;5.05;;
51949;SDS011;37974;53.218;6.640;2023-06-19T03:15:37;10.27;;;5.85;;
51949;SDS011;37974;53.218;6.640;2023-06-19T03:18:11;6.95;;;4.97;;
51949;SDS011;37974;53.218;6.640;2023-06-19T03:20:56;12.60;;;5.75;;
51949;SDS011;37974;53.218;6.640;2023-06-19T03:23:46;9.77;;;4.63;;
51949;SDS011;37974;53.218;6.640;2023-06-19T03:26:39;9.05;;;5.68;;
51949;SDS011;37974;53.218;6.640;2023-06-19T03:29:18;9.85;;;4.95;;
51949;SDS011;37974;53.218;6.640;2023-06-19T03:32:16;12.02;;;5.65;;
51949;SDS011;37974;53.218;6.640;2023-06-19T03:35:01;6.95;;;4.72;;
51949;SDS011;37974;53.218;6.640;2023-06-19T03:37:42;7.13;;;5.40;;
51949;SDS011;37974;53.218;6.640;2023-06-19T03:40:42;10.38;;;5.22;;
51949;SDS011;37974;53.218;6.640;2023-06-19T03:44:16;7.93;;;5.50;;
51949;SDS011;37974;53.218;6.640;2023-06-19T03:46:57;7.55;;;5.60;;
51949;SDS011;37974;53.218;6.640;2023-06-19T03:50:08;8.40;;;5.55;;
51949;SDS011;37974;53.218;6.640;2023-06-19T03:52:45;8.77;;;5.60;;
51949;SDS011;37974;53.218;6.640;2023-06-19T03:55:22;11.93;;;6.40;;
51949;SDS011;37974;53.218;6.640;2023-06-19T03:57:57;7.53;;;5.13;;
51949;SDS011;37974;53.218;6.640;2023-06-19T04:00:57;7.25;;;5.22;;
51949;SDS011;37974;53.218;6.640;2023-06-19T04:03:46;9.70;;;5.38;;
51949;SDS011;37974;53.218;6.640;2023-06-19T04:06:14;10.50;;;5.50;;
51949;SDS011;37974;53.218;6.640;2023-06-19T04:08:54;9.23;;;5.38;;
51949;SDS011;37974;53.218;6.640;2023-06-19T04:11:42;13.63;;;5.83;;
51949;SDS011;37974;53.218;6.640;2023-06-19T04:14:16;8.77;;;5.82;;
51949;SDS011;37974;53.218;6.640;2023-06-19T04:17:35;9.85;;;5.30;;
51949;SDS011;37974;53.218;6.640;2023-06-19T04:23:38;7.65;;;4.85;;
51949;SDS011;37974;53.218;6.640;2023-06-19T04:26:18;6.65;;;5.10;;
51949;SDS011;37974;53.218;6.640;2023-06-19T04:28:55;8.13;;;4.65;;
51949;SDS011;37974;53.218;6.640;2023-06-19T04:35:05;9.38;;;5.07;;
51949;SDS011;37974;53.218;6.640;2023-06-19T04:37:43;6.65;;;4.88;;
51949;SDS011;37974;53.218;6.640;2023-06-19T04:42:54;7.68;;;5.35;;
51949;SDS011;37974;53.218;6.640;2023-06-19T04:45:30;7.00;;;5.22;;
51949;SDS011;37974;53.218;6.640;2023-06-19T04:48:30;20.15;;;5.43;;
51949;SDS011;37974;53.218;6.640;2023-06-19T04:51:05;8.40;;;4.93;;
51949;SDS011;37974;53.218;6.640;2023-06-19T04:54:14;8.38;;;5.10;;
51949;SDS011;37974;53.218;6.640;2023-06-19T04:59:44;8.00;;;4.60;;
51949;SDS011;37974;53.218;6.640;2023-06-19T05:02:34;10.95;;;5.22;;
51949;SDS011;37974;53.218;6.640;2023-06-19T05:05:08;12.02;;;4.97;;
51949;SDS011;37974;53.218;6.640;2023-06-19T05:10:42;8.88;;;4.25;;
51949;SDS011;37974;53.218;6.640;2023-06-19T05:13:29;13.90;;;3.92;;
51949;SDS011;37974;53.218;6.640;2023-06-19T05:16:01;6.78;;;3.70;;
51949;SDS011;37974;53.218;6.640;2023-06-19T05:18:53;11.88;;;4.63;;
51949;SDS011;37974;53.218;6.640;2023-06-19T05:22:17;8.55;;;3.80;;
51949;SDS011;37974;53.218;6.640;2023-06-19T05:24:49;15.27;;;4.30;;
51949;SDS011;37974;53.218;6.640;2023-06-19T05:28:04;9.05;;;4.10;;
51949;SDS011;37974;53.218;6.640;2023-06-19T05:30:36;12.27;;;4.47;;
51949;SDS011;37974;53.218;6.640;2023-06-19T05:33:23;11.43;;;3.92;;
51949;SDS011;37974;53.218;6.640;2023-06-19T05:36:04;10.90;;;4.03;;
51949;SDS011;37974;53.218;6.640;2023-06-19T05:39:02;13.02;;;4.40;;
51949;SDS011;37974;53.218;6.640;2023-06-19T05:41:40;7.00;;;3.55;;
51949;SDS011;37974;53.218;6.640;2023-06-19T05:44:18;8.75;;;4.13;;
51949;SDS011;37974;53.218;6.640;2023-06-19T05:53:33;7.00;;;4.25;;
51949;SDS011;37974;53.218;6.640;2023-06-19T06:00:11;8.75;;;4.32;;
51949;SDS011;37974;53.218;6.640;2023-06-19T06:06:15;10.23;;;4.63;;
51949;SDS011;37974;53.218;6.640;2023-06-19T06:09:00;7.75;;;4.82;;
51949;SDS011;37974;53.218;6.640;2023-06-19T06:11:37;9.25;;;4.57;;
51949;SDS011;37974;53.218;6.640;2023-06-19T06:14:18;16.42;;;5.45;;
51949;SDS011;37974;53.218;6.640;2023-06-19T06:17:08;10.48;;;6.05;;
51949;SDS011;37974;53.218;6.640;2023-06-19T06:23:24;8.90;;;5.78;;
51949;SDS011;37974;53.218;6.640;2023-06-19T06:26:02;9.02;;;5.60;;
51949;SDS011;37974;53.218;6.640;2023-06-19T06:29:12;8.00;;;5.00;;
51949;SDS011;37974;53.218;6.640;2023-06-19T06:32:17;12.70;;;5.85;;
51949;SDS011;37974;53.218;6.640;2023-06-19T06:35:12;10.00;;;5.97;;
51949;SDS011;37974;53.218;6.640;2023-06-19T06:38:10;9.90;;;6.72;;
51949;SDS011;37974;53.218;6.640;2023-06-19T06:40:48;8.20;;;6.35;;
51949;SDS011;37974;53.218;6.640;2023-06-19T06:43:25;8.75;;;5.68;;
51949;SDS011;37974;53.218;6.640;2023-06-19T06:46:33;32.20;;;4.60;;
51949;SDS011;37974;53.218;6.640;2023-06-19T06:49:17;7.95;;;5.20;;
51949;SDS011;37974;53.218;6.640;2023-06-19T06:52:30;9.55;;;4.95;;
51949;SDS011;37974;53.218;6.640;2023-06-19T06:58:31;8.43;;;3.85;;
51949;SDS011;37974;53.218;6.640;2023-06-19T07:01:09;10.60;;;4.00;;
51949;SDS011;37974;53.218;6.640;2023-06-19T07:04:07;4.97;;;3.72;;
51949;SDS011;37974;53.218;6.640;2023-06-19T07:06:45;6.50;;;3.70;;
51949;SDS011;37974;53.218;6.640;2023-06-19T07:09:23;5.20;;;3.60;;
51949;SDS011;37974;53.218;6.640;2023-06-19T07:11:57;3.97;;;2.88;;
51949;SDS011;37974;53.218;6.640;2023-06-19T07:14:49;5.95;;;3.10;;
51949;SDS011;37974;53.218;6.640;2023-06-19T07:17:55;5.20;;;3.00;;
51949;SDS011;37974;53.218;6.640;2023-06-19T07:24:31;10.82;;;6.13;;
51949;SDS011;37974;53.218;6.640;2023-06-19T07:27:11;10.50;;;6.27;;
51949;SDS011;37974;53.218;6.640;2023-06-19T07:29:39;12.40;;;6.90;;
51949;SDS011;37974;53.218;6.640;2023-06-19T07:32:05;9.45;;;6.10;;
51949;SDS011;37974;53.218;6.640;2023-06-19T07:34:31;11.30;;;6.13;;
51949;SDS011;37974;53.218;6.640;2023-06-19T07:36:57;10.50;;;7.18;;
51949;SDS011;37974;53.218;6.640;2023-06-19T07:39:25;11.85;;;7.78;;
51949;SDS011;37974;53.218;6.640;2023-06-19T07:41:51;10.90;;;8.50;;
51949;SDS011;37974;53.218;6.640;2023-06-19T07:44:17;13.25;;;8.98;;
51949;SDS011;37974;53.218;6.640;2023-06-19T07:46:55;14.55;;;10.00;;
51949;SDS011;37974;53.218;6.640;2023-06-19T07:49:45;20.70;;;9.95;;
51949;SDS011;37974;53.218;6.640;2023-06-19T07:52:11;18.67;;;10.23;;
51949;SDS011;37974;53.218;6.640;2023-06-19T07:54:49;17.27;;;10.63;;
51949;SDS011;37974;53.218;6.640;2023-06-19T07:57:16;19.35;;;9.73;;
51949;SDS011;37974;53.218;6.640;2023-06-19T07:59:42;14.32;;;10.30;;
51949;SDS011;37974;53.218;6.640;2023-06-19T08:02:09;14.18;;;10.15;;
51949;SDS011;37974;53.218;6.640;2023-06-19T08:04:36;14.98;;;10.95;;
51949;SDS011;37974;53.218;6.640;2023-06-19T08:07:04;12.68;;;9.75;;
51949;SDS011;37974;53.218;6.640;2023-06-19T08:09:31;15.15;;;10.93;;
51949;SDS011;37974;53.218;6.640;2023-06-19T08:12:01;17.30;;;11.25;;
51949;SDS011;37974;53.218;6.640;2023-06-19T08:14:27;13.65;;;10.27;;
51949;SDS011;37974;53.218;6.640;2023-06-19T08:16:54;15.25;;;9.20;;
51949;SDS011;37974;53.218;6.640;2023-06-19T08:19:35;15.70;;;8.90;;
51949;SDS011;37974;53.218;6.640;2023-06-19T08:22:22;13.75;;;8.57;;
51949;SDS011;37974;53.218;6.640;2023-06-19T08:25:08;18.33;;;8.10;;
51949;SDS011;37974;53.218;6.640;2023-06-19T08:27:34;14.10;;;8.20;;
51949;SDS011;37974;53.218;6.640;2023-06-19T08:30:00;12.38;;;6.68;;
51949;SDS011;37974;53.218;6.640;2023-06-19T08:32:26;13.55;;;6.20;;
51949;SDS011;37974;53.218;6.640;2023-06-19T08:34:52;11.38;;;6.00;;
51949;SDS011;37974;53.218;6.640;2023-06-19T08:37:17;16.05;;;6.00;;
51949;SDS011;37974;53.218;6.640;2023-06-19T08:39:43;14.60;;;6.35;;
51949;SDS011;37974;53.218;6.640;2023-06-19T08:42:09;11.75;;;6.85;;
51949;SDS011;37974;53.218;6.640;2023-06-19T08:44:36;14.68;;;6.55;;
51949;SDS011;37974;53.218;6.640;2023-06-19T08:47:05;11.32;;;6.30;;
51949;SDS011;37974;53.218;6.640;2023-06-19T08:49:33;11.25;;;7.13;;
51949;SDS011;37974;53.218;6.640;2023-06-19T08:52:12;17.30;;;6.85;;
51949;SDS011;37974;53.218;6.640;2023-06-19T08:55:09;14.45;;;5.60;;
51949;SDS011;37974;53.218;6.640;2023-06-19T08:57:37;14.27;;;5.78;;
51949;SDS011;37974;53.218;6.640;2023-06-19T09:00:03;9.63;;;5.18;;
51949;SDS011;37974;53.218;6.640;2023-06-19T09:02:36;11.27;;;5.25;;
51949;SDS011;37974;53.218;6.640;2023-06-19T09:05:10;8.02;;;4.53;;
51949;SDS011;37974;53.218;6.640;2023-06-19T09:07:39;12.30;;;4.75;;
51949;SDS011;37974;53.218;6.640;2023-06-19T09:10:13;9.20;;;4.70;;
51949;SDS011;37974;53.218;6.640;2023-06-19T09:12:42;10.95;;;3.70;;
51949;SDS011;37974;53.218;6.640;2023-06-19T09:15:15;9.05;;;2.95;;
51949;SDS011;37974;53.218;6.640;2023-06-19T09:17:44;10.25;;;3.70;;
51949;SDS011;37974;53.218;6.640;2023-06-19T09:20:10;7.35;;;3.22;;
51949;SDS011;37974;53.218;6.640;2023-06-19T09:22:39;15.25;;;3.90;;
51949;SDS011;37974;53.218;6.640;2023-06-19T09:25:06;7.38;;;3.60;;
51949;SDS011;37974;53.218;6.640;2023-06-19T09:27:34;8.77;;;3.47;;
51949;SDS011;37974;53.218;6.640;2023-06-19T09:30:01;9.00;;;3.20;;
51949;SDS011;37974;53.218;6.640;2023-06-19T09:32:28;5.10;;;3.63;;
51949;SDS011;37974;53.218;6.640;2023-06-19T09:34:57;8.85;;;3.10;;
51949;SDS011;37974;53.218;6.640;2023-06-19T09:37:27;6.72;;;3.22;;
51949;SDS011;37974;53.218;6.640;2023-06-19T09:39:57;6.45;;;3.35;;
51949;SDS011;37974;53.218;6.640;2023-06-19T09:42:39;7.47;;;3.15;;
51949;SDS011;37974;53.218;6.640;2023-06-19T09:45:10;5.53;;;2.72;;
51949;SDS011;37974;53.218;6.640;2023-06-19T09:47:57;5.25;;;2.97;;
51949;SDS011;37974;53.218;6.640;2023-06-19T09:50:26;7.38;;;2.83;;
51949;SDS011;37974;53.218;6.640;2023-06-19T09:52:59;5.57;;;3.25;;
51949;SDS011;37974;53.218;6.640;2023-06-19T09:55:25;7.30;;;3.10;;
51949;SDS011;37974;53.218;6.640;2023-06-19T09:57:59;5.88;;;3.08;;
51949;SDS011;37974;53.218;6.640;2023-06-19T10:00:40;5.07;;;3.17;;
51949;SDS011;37974;53.218;6.640;2023-06-19T10:06:51;9.98;;;4.07;;
51949;SDS011;37974;53.218;6.640;2023-06-19T10:09:22;7.95;;;4.22;;
51949;SDS011;37974;53.218;6.640;2023-06-19T10:12:11;6.75;;;4.63;;
51949;SDS011;37974;53.218;6.640;2023-06-19T10:14:44;10.27;;;5.10;;
51949;SDS011;37974;53.218;6.640;2023-06-19T10:17:21;14.73;;;4.63;;
51949;SDS011;37974;53.218;6.640;2023-06-19T10:19:49;12.25;;;4.68;;
51949;SDS011;37974;53.218;6.640;2023-06-19T10:22:23;10.15;;;4.93;;
51949;SDS011;37974;53.218;6.640;2023-06-19T10:25:00;11.18;;;5.28;;
51949;SDS011;37974;53.218;6.640;2023-06-19T10:27:26;7.82;;;5.72;;
51949;SDS011;37974;53.218;6.640;2023-06-19T10:29:52;12.85;;;6.05;;
51949;SDS011;37974;53.218;6.640;2023-06-19T10:32:20;13.95;;;5.30;;
51949;SDS011;37974;53.218;6.640;2023-06-19T10:34:46;11.45;;;5.88;;
51949;SDS011;37974;53.218;6.640;2023-06-19T10:37:14;11.55;;;5.63;;
51949;SDS011;37974;53.218;6.640;2023-06-19T10:39:41;11.75;;;6.63;;
51949;SDS011;37974;53.218;6.640;2023-06-19T10:42:07;8.40;;;6.22;;
51949;SDS011;37974;53.218;6.640;2023-06-19T10:44:34;9.60;;;6.63;;
51949;SDS011;37974;53.218;6.640;2023-06-19T10:47:01;9.43;;;6.50;;
51949;SDS011;37974;53.218;6.640;2023-06-19T10:49:27;11.93;;;7.13;;
51949;SDS011;37974;53.218;6.640;2023-06-19T10:51:53;11.20;;;7.28;;
51949;SDS011;37974;53.218;6.640;2023-06-19T10:54:24;11.02;;;6.97;;
51949;SDS011;37974;53.218;6.640;2023-06-19T10:56:50;13.30;;;6.97;;
51949;SDS011;37974;53.218;6.640;2023-06-19T10:59:16;8.90;;;6.55;;
51949;SDS011;37974;53.218;6.640;2023-06-19T11:01:44;12.55;;;7.00;;
51949;SDS011;37974;53.218;6.640;2023-06-19T11:04:12;8.20;;;7.10;;
51949;SDS011;37974;53.218;6.640;2023-06-19T11:06:40;8.82;;;6.70;;
51949;SDS011;37974;53.218;6.640;2023-06-19T11:09:07;9.35;;;6.32;;
51949;SDS011;37974;53.218;6.640;2023-06-19T11:11:35;9.68;;;6.90;;
51949;SDS011;37974;53.218;6.640;2023-06-19T11:14:05;13.00;;;7.18;;
51949;SDS011;37974;53.218;6.640;2023-06-19T11:16:32;10.88;;;6.78;;
51949;SDS011;37974;53.218;6.640;2023-06-19T11:18:59;9.30;;;7.07;;
51949;SDS011;37974;53.218;6.640;2023-06-19T11:21:30;13.70;;;6.75;;
51949;SDS011;37974;53.218;6.640;2023-06-19T11:24:00;9.63;;;6.45;;
51949;SDS011;37974;53.218;6.640;2023-06-19T11:26:26;13.20;;;7.65;;
51949;SDS011;37974;53.218;6.640;2023-06-19T11:28:52;15.10;;;7.43;;
51949;SDS011;37974;53.218;6.640;2023-06-19T11:31:24;9.90;;;6.93;;
51949;SDS011;37974;53.218;6.640;2023-06-19T11:36:23;9.88;;;6.28;;
51949;SDS011;37974;53.218;6.640;2023-06-19T11:38:50;8.88;;;6.30;;
51949;SDS011;37974;53.218;6.640;2023-06-19T11:41:24;15.27;;;7.65;;
51949;SDS011;37974;53.218;6.640;2023-06-19T11:43:57;22.98;;;7.45;;
51949;SDS011;37974;53.218;6.640;2023-06-19T11:46:29;14.55;;;7.90;;
51949;SDS011;37974;53.218;6.640;2023-06-19T11:51:35;11.07;;;7.50;;
51949;SDS011;37974;53.218;6.640;2023-06-19T11:54:02;12.32;;;6.95;;
51949;SDS011;37974;53.218;6.640;2023-06-19T11:56:30;12.70;;;7.88;;
51949;SDS011;37974;53.218;6.640;2023-06-19T11:58:56;11.57;;;7.22;;
51949;SDS011;37974;53.218;6.640;2023-06-19T12:01:24;15.23;;;8.13;;
51949;SDS011;37974;53.218;6.640;2023-06-19T12:03:51;11.57;;;6.68;;
51949;SDS011;37974;53.218;6.640;2023-06-19T12:06:17;12.73;;;8.00;;
51949;SDS011;37974;53.218;6.640;2023-06-19T12:08:43;11.77;;;7.95;;
51949;SDS011;37974;53.218;6.640;2023-06-19T12:11:09;11.40;;;7.00;;
51949;SDS011;37974;53.218;6.640;2023-06-19T12:13:35;12.50;;;7.32;;
51949;SDS011;37974;53.218;6.640;2023-06-19T12:16:01;12.30;;;7.68;;
51949;SDS011;37974;53.218;6.640;2023-06-19T12:18:28;13.13;;;8.40;;
51949;SDS011;37974;53.218;6.640;2023-06-19T12:20:55;16.13;;;7.40;;
51949;SDS011;37974;53.218;6.640;2023-06-19T12:23:20;12.70;;;8.48;;
51949;SDS011;37974;53.218;6.640;2023-06-19T12:25:46;15.70;;;7.50;;
51949;SDS011;37974;53.218;6.640;2023-06-19T12:28:12;11.05;;;6.35;;
51949;SDS011;37974;53.218;6.640;2023-06-19T12:30:41;9.50;;;6.60;;
51949;SDS011;37974;53.218;6.640;2023-06-19T12:33:07;12.15;;;7.50;;
51949;SDS011;37974;53.218;6.640;2023-06-19T12:35:33;13.00;;;7.00;;
51949;SDS011;37974;53.218;6.640;2023-06-19T12:37:58;9.50;;;6.95;;
51949;SDS011;37974;53.218;6.640;2023-06-19T12:40:24;14.30;;;8.52;;
51949;SDS011;37974;53.218;6.640;2023-06-19T12:42:50;16.63;;;9.23;;
51949;SDS011;37974;53.218;6.640;2023-06-19T12:45:15;13.32;;;8.30;;
51949;SDS011;37974;53.218;6.640;2023-06-19T12:47:41;10.85;;;7.10;;
51949;SDS011;37974;53.218;6.640;2023-06-19T12:50:07;13.75;;;6.65;;
51949;SDS011;37974;53.218;6.640;2023-06-19T12:52:33;14.85;;;6.95;;
51949;SDS011;37974;53.218;6.640;2023-06-19T12:54:59;11.32;;;7.60;;
51949;SDS011;37974;53.218;6.640;2023-06-19T12:57:26;12.55;;;6.63;;
51949;SDS011;37974;53.218;6.640;2023-06-19T12:59:52;9.98;;;6.22;;
51949;SDS011;37974;53.218;6.640;2023-06-19T13:02:18;14.40;;;6.45;;
51949;SDS011;37974;53.218;6.640;2023-06-19T13:04:43;13.65;;;6.57;;
51949;SDS011;37974;53.218;6.640;2023-06-19T13:07:09;12.60;;;6.22;;
51949;SDS011;37974;53.218;6.640;2023-06-19T13:09:35;15.75;;;6.68;;
51949;SDS011;37974;53.218;6.640;2023-06-19T13:12:01;13.45;;;6.50;;
51949;SDS011;37974;53.218;6.640;2023-06-19T13:14:27;14.13;;;7.50;;
51949;SDS011;37974;53.218;6.640;2023-06-19T13:16:53;16.25;;;7.07;;
51949;SDS011;37974;53.218;6.640;2023-06-19T13:19:18;10.18;;;6.07;;
51949;SDS011;37974;53.218;6.640;2023-06-19T13:21:44;13.25;;;6.80;;
51949;SDS011;37974;53.218;6.640;2023-06-19T13:24:10;8.93;;;6.32;;
51949;SDS011;37974;53.218;6.640;2023-06-19T13:26:36;11.93;;;6.35;;
51949;SDS011;37974;53.218;6.640;2023-06-19T13:29:02;12.05;;;6.20;;
51949;SDS011;37974;53.218;6.640;2023-06-19T13:31:28;9.95;;;5.75;;
51949;SDS011;37974;53.218;6.640;2023-06-19T13:33:53;8.50;;;5.97;;
51949;SDS011;37974;53.218;6.640;2023-06-19T13:36:19;10.43;;;5.40;;
51949;SDS011;37974;53.218;6.640;2023-06-19T13:38:45;11.73;;;6.25;;
51949;SDS011;37974;53.218;6.640;2023-06-19T13:41:12;11.68;;;6.25;;
51949;SDS011;37974;53.218;6.640;2023-06-19T13:43:37;12.43;;;6.75;;
51949;SDS011;37974;53.218;6.640;2023-06-19T13:46:05;9.77;;;5.13;;
51949;SDS011;37974;53.218;6.640;2023-06-19T13:48:32;14.68;;;5.22;;
51949;SDS011;37974;53.218;6.640;2023-06-19T13:50:58;8.98;;;4.35;;
51949;SDS011;37974;53.218;6.640;2023-06-19T13:53:25;10.55;;;5.97;;
51949;SDS011;37974;53.218;6.640;2023-06-19T13:55:53;7.20;;;4.60;;
51949;SDS011;37974;53.218;6.640;2023-06-19T13:58:19;7.82;;;4.60;;
51949;SDS011;37974;53.218;6.640;2023-06-19T14:00:45;8.40;;;4.93;;
51949;SDS011;37974;53.218;6.640;2023-06-19T14:03:11;9.77;;;5.35;;
51949;SDS011;37974;53.218;6.640;2023-06-19T14:05:37;10.20;;;4.60;;
51949;SDS011;37974;53.218;6.640;2023-06-19T14:08:03;11.70;;;4.65;;
51949;SDS011;37974;53.218;6.640;2023-06-19T14:10:29;12.30;;;4.93;;
51949;SDS011;37974;53.218;6.640;2023-06-19T14:12:55;14.60;;;5.28;;
51949;SDS011;37974;53.218;6.640;2023-06-19T14:15:21;8.25;;;5.43;;
51949;SDS011;37974;53.218;6.640;2023-06-19T14:17:47;6.63;;;4.38;;
51949;SDS011;37974;53.218;6.640;2023-06-19T14:20:12;8.60;;;4.28;;
51949;SDS011;37974;53.218;6.640;2023-06-19T14:22:38;8.68;;;4.10;;
51949;SDS011;37974;53.218;6.640;2023-06-19T14:25:06;7.47;;;4.80;;
51949;SDS011;37974;53.218;6.640;2023-06-19T14:27:32;8.27;;;4.90;;
51949;SDS011;37974;53.218;6.640;2023-06-19T14:29:58;9.02;;;4.80;;
51949;SDS011;37974;53.218;6.640;2023-06-19T14:32:24;7.03;;;4.35;;
51949;SDS011;37974;53.218;6.640;2023-06-19T14:34:50;10.27;;;5.05;;
51949;SDS011;37974;53.218;6.640;2023-06-19T14:37:16;8.05;;;4.95;;
51949;SDS011;37974;53.218;6.640;2023-06-19T14:39:42;12.48;;;5.30;;
51949;SDS011;37974;53.218;6.640;2023-06-19T14:42:08;7.60;;;5.10;;
51949;SDS011;37974;53.218;6.640;2023-06-19T14:44:35;10.20;;;5.45;;
51949;SDS011;37974;53.218;6.640;2023-06-19T14:47:01;9.35;;;5.35;;
51949;SDS011;37974;53.218;6.640;2023-06-19T14:49:27;7.93;;;5.20;;
51949;SDS011;37974;53.218;6.640;2023-06-19T14:51:52;11.32;;;5.18;;
51949;SDS011;37974;53.218;6.640;2023-06-19T14:54:19;8.27;;;4.93;;
51949;SDS011;37974;53.218;6.640;2023-06-19T14:56:44;10.90;;;6.18;;
51949;SDS011;37974;53.218;6.640;2023-06-19T14:59:13;9.35;;;5.72;;
51949;SDS011;37974;53.218;6.640;2023-06-19T15:01:39;7.65;;;4.97;;
51949;SDS011;37974;53.218;6.640;2023-06-19T15:04:05;10.63;;;5.00;;
51949;SDS011;37974;53.218;6.640;2023-06-19T15:06:31;9.43;;;5.20;;
51949;SDS011;37974;53.218;6.640;2023-06-19T15:08:57;12.15;;;5.10;;
51949;SDS011;37974;53.218;6.640;2023-06-19T15:11:23;9.20;;;4.97;;
51949;SDS011;37974;53.218;6.640;2023-06-19T15:13:49;9.98;;;4.43;;
51949;SDS011;37974;53.218;6.640;2023-06-19T15:16:15;13.70;;;6.07;;
51949;SDS011;37974;53.218;6.640;2023-06-19T15:18:42;7.13;;;4.57;;
51949;SDS011;37974;53.218;6.640;2023-06-19T15:21:08;9.30;;;4.97;;
51949;SDS011;37974;53.218;6.640;2023-06-19T15:23:34;6.85;;;4.15;;
51949;SDS011;37974;53.218;6.640;2023-06-19T15:26:00;8.93;;;5.20;;
51949;SDS011;37974;53.218;6.640;2023-06-19T15:28:25;10.18;;;4.30;;
51949;SDS011;37974;53.218;6.640;2023-06-19T15:30:51;9.63;;;4.40;;
51949;SDS011;37974;53.218;6.640;2023-06-19T15:33:17;6.35;;;4.10;;
51949;SDS011;37974;53.218;6.640;2023-06-19T15:35:42;6.50;;;4.13;;
51949;SDS011;37974;53.218;6.640;2023-06-19T15:38:08;9.43;;;4.40;;
51949;SDS011;37974;53.218;6.640;2023-06-19T15:40:34;10.93;;;4.35;;
51949;SDS011;37974;53.218;6.640;2023-06-19T15:43:00;9.43;;;4.55;;
51949;SDS011;37974;53.218;6.640;2023-06-19T15:45:26;8.05;;;4.38;;
51949;SDS011;37974;53.218;6.640;2023-06-19T15:47:51;9.05;;;4.10;;
51949;SDS011;37974;53.218;6.640;2023-06-19T15:50:18;7.55;;;4.20;;
51949;SDS011;37974;53.218;6.640;2023-06-19T15:52:43;6.57;;;3.65;;
51949;SDS011;37974;53.218;6.640;2023-06-19T15:55:11;6.43;;;3.50;;
51949;SDS011;37974;53.218;6.640;2023-06-19T15:57:37;5.72;;;3.25;;
51949;SDS011;37974;53.218;6.640;2023-06-19T16:00:04;8.13;;;3.53;;
51949;SDS011;37974;53.218;6.640;2023-06-19T16:02:30;7.00;;;4.80;;
51949;SDS011;37974;53.218;6.640;2023-06-19T16:04:56;7.53;;;4.07;;
51949;SDS011;37974;53.218;6.640;2023-06-19T16:07:22;6.72;;;3.90;;
51949;SDS011;37974;53.218;6.640;2023-06-19T16:09:47;9.48;;;4.15;;
51949;SDS011;37974;53.218;6.640;2023-06-19T16:12:13;6.93;;;3.67;;
51949;SDS011;37974;53.218;6.640;2023-06-19T16:14:39;7.18;;;3.50;;
51949;SDS011;37974;53.218;6.640;2023-06-19T16:17:04;7.72;;;3.10;;
51949;SDS011;37974;53.218;6.640;2023-06-19T16:19:30;6.32;;;3.45;;
51949;SDS011;37974;53.218;6.640;2023-06-19T16:21:58;5.72;;;3.10;;
51949;SDS011;37974;53.218;6.640;2023-06-19T16:24:24;6.60;;;3.33;;
51949;SDS011;37974;53.218;6.640;2023-06-19T16:26:50;6.80;;;2.88;;
51949;SDS011;37974;53.218;6.640;2023-06-19T16:29:15;4.57;;;3.15;;
51949;SDS011;37974;53.218;6.640;2023-06-19T16:31:44;6.40;;;3.58;;
51949;SDS011;37974;53.218;6.640;2023-06-19T16:34:16;5.15;;;3.10;;
51949;SDS011;37974;53.218;6.640;2023-06-19T16:36:45;7.30;;;3.03;;
51949;SDS011;37974;53.218;6.640;2023-06-19T16:39:11;5.72;;;2.80;;
51949;SDS011;37974;53.218;6.640;2023-06-19T16:41:39;5.60;;;3.08;;
51949;SDS011;37974;53.218;6.640;2023-06-19T16:44:05;5.75;;;2.97;;
51949;SDS011;37974;53.218;6.640;2023-06-19T16:46:31;5.00;;;3.00;;
51949;SDS011;37974;53.218;6.640;2023-06-19T16:48:57;7.80;;;3.00;;
51949;SDS011;37974;53.218;6.640;2023-06-19T16:51:23;5.47;;;3.17;;
51949;SDS011;37974;53.218;6.640;2023-06-19T16:53:49;5.75;;;3.13;;